Terminal Aerodrome Forecast
Issued by NWS

Home | Current Version | Previous Version | Text Only | Print | Product List | Glossary On
Versions: 1 2 3 4 5 6 7 8 9 10 11 12
000
FTUS42 TJSJ 281100
TAFIST
TAF
TIST 281125Z 2812/2912 10008KT P6SM FEW025
     FM281400 13010KT P6SM FEW025
     FM282300 11008KT P6SM VCSH FEW025 SCT035
      AMD NOT SKED=

USA.gov is the U.S. government's official web portal to all federal, state and local government web resources and services.